sensor_id;sensor_type;location;lat;lon;timestamp;P1;durP1;ratioP1;P2;durP2;ratioP2
67274;SDS011;55463;52.324;5.122;2023-08-06T00:00:20;18.52;;;11.07;;
67274;SDS011;55463;52.324;5.122;2023-08-06T00:02:46;14.73;;;11.18;;
67274;SDS011;55463;52.324;5.122;2023-08-06T00:05:11;15.55;;;10.05;;
67274;SDS011;55463;52.324;5.122;2023-08-06T00:07:36;13.48;;;9.60;;
67274;SDS011;55463;52.324;5.122;2023-08-06T00:10:02;10.95;;;8.57;;
67274;SDS011;55463;52.324;5.122;2023-08-06T00:12:27;14.27;;;9.05;;
67274;SDS011;55463;52.324;5.122;2023-08-06T00:14:53;11.57;;;7.75;;
67274;SDS011;55463;52.324;5.122;2023-08-06T00:17:18;10.88;;;7.72;;
67274;SDS011;55463;52.324;5.122;2023-08-06T00:19:44;12.18;;;8.02;;
67274;SDS011;55463;52.324;5.122;2023-08-06T00:22:09;12.35;;;8.02;;
67274;SDS011;55463;52.324;5.122;2023-08-06T00:24:35;8.23;;;6.82;;
67274;SDS011;55463;52.324;5.122;2023-08-06T00:27:01;10.68;;;6.40;;
67274;SDS011;55463;52.324;5.122;2023-08-06T00:29:29;11.02;;;6.05;;
67274;SDS011;55463;52.324;5.122;2023-08-06T00:31:54;11.75;;;5.63;;
67274;SDS011;55463;52.324;5.122;2023-08-06T00:34:19;6.63;;;4.70;;
67274;SDS011;55463;52.324;5.122;2023-08-06T00:36:45;6.97;;;5.10;;
67274;SDS011;55463;52.324;5.122;2023-08-06T00:39:10;10.15;;;5.85;;
67274;SDS011;55463;52.324;5.122;2023-08-06T00:41:36;11.60;;;7.35;;
67274;SDS011;55463;52.324;5.122;2023-08-06T00:44:01;13.18;;;9.15;;
67274;SDS011;55463;52.324;5.122;2023-08-06T00:46:26;15.82;;;9.27;;
67274;SDS011;55463;52.324;5.122;2023-08-06T00:48:52;15.75;;;9.07;;
67274;SDS011;55463;52.324;5.122;2023-08-06T00:51:18;13.43;;;8.30;;
67274;SDS011;55463;52.324;5.122;2023-08-06T00:53:44;12.55;;;8.57;;
67274;SDS011;55463;52.324;5.122;2023-08-06T00:56:09;12.27;;;8.52;;
67274;SDS011;55463;52.324;5.122;2023-08-06T00:58:35;12.43;;;8.52;;
67274;SDS011;55463;52.324;5.122;2023-08-06T01:01:01;15.05;;;9.48;;
67274;SDS011;55463;52.324;5.122;2023-08-06T01:03:27;12.32;;;9.15;;
67274;SDS011;55463;52.324;5.122;2023-08-06T01:05:52;12.18;;;9.10;;
67274;SDS011;55463;52.324;5.122;2023-08-06T01:13:31;15.00;;;9.65;;
67274;SDS011;55463;52.324;5.122;2023-08-06T01:16:07;15.23;;;9.25;;
67274;SDS011;55463;52.324;5.122;2023-08-06T01:18:35;15.57;;;9.60;;
67274;SDS011;55463;52.324;5.122;2023-08-06T01:21:02;12.35;;;8.48;;
67274;SDS011;55463;52.324;5.122;2023-08-06T01:23:27;14.15;;;9.45;;
67274;SDS011;55463;52.324;5.122;2023-08-06T01:28:44;14.40;;;8.25;;
67274;SDS011;55463;52.324;5.122;2023-08-06T01:31:18;12.70;;;8.63;;
67274;SDS011;55463;52.324;5.122;2023-08-06T01:34:00;14.07;;;8.77;;
67274;SDS011;55463;52.324;5.122;2023-08-06T01:36:28;16.83;;;9.15;;
67274;SDS011;55463;52.324;5.122;2023-08-06T01:38:55;11.68;;;8.82;;
67274;SDS011;55463;52.324;5.122;2023-08-06T01:41:20;12.63;;;8.68;;
67274;SDS011;55463;52.324;5.122;2023-08-06T01:43:45;15.40;;;9.32;;
67274;SDS011;55463;52.324;5.122;2023-08-06T01:46:11;12.30;;;8.70;;
67274;SDS011;55463;52.324;5.122;2023-08-06T01:48:36;13.40;;;8.63;;
67274;SDS011;55463;52.324;5.122;2023-08-06T01:51:05;13.65;;;8.73;;
67274;SDS011;55463;52.324;5.122;2023-08-06T01:53:31;15.95;;;9.23;;
67274;SDS011;55463;52.324;5.122;2023-08-06T01:55:56;16.67;;;9.68;;
67274;SDS011;55463;52.324;5.122;2023-08-06T01:58:22;15.02;;;9.50;;
67274;SDS011;55463;52.324;5.122;2023-08-06T02:00:47;17.48;;;9.65;;
67274;SDS011;55463;52.324;5.122;2023-08-06T02:03:13;12.85;;;9.15;;
67274;SDS011;55463;52.324;5.122;2023-08-06T02:05:38;16.30;;;9.98;;
67274;SDS011;55463;52.324;5.122;2023-08-06T02:08:05;17.45;;;11.25;;
67274;SDS011;55463;52.324;5.122;2023-08-06T02:10:30;17.50;;;10.20;;
67274;SDS011;55463;52.324;5.122;2023-08-06T02:12:55;16.77;;;10.43;;
67274;SDS011;55463;52.324;5.122;2023-08-06T02:15:21;16.63;;;11.48;;
67274;SDS011;55463;52.324;5.122;2023-08-06T02:17:46;13.95;;;10.23;;
67274;SDS011;55463;52.324;5.122;2023-08-06T02:20:11;23.52;;;11.65;;
67274;SDS011;55463;52.324;5.122;2023-08-06T02:22:37;16.15;;;10.93;;
67274;SDS011;55463;52.324;5.122;2023-08-06T02:25:02;18.52;;;11.90;;
67274;SDS011;55463;52.324;5.122;2023-08-06T02:27:28;18.73;;;12.15;;
67274;SDS011;55463;52.324;5.122;2023-08-06T02:29:53;18.13;;;12.43;;
67274;SDS011;55463;52.324;5.122;2023-08-06T02:32:18;15.75;;;11.35;;
67274;SDS011;55463;52.324;5.122;2023-08-06T02:34:44;19.38;;;13.25;;
67274;SDS011;55463;52.324;5.122;2023-08-06T02:37:09;20.13;;;13.25;;
67274;SDS011;55463;52.324;5.122;2023-08-06T02:39:34;21.10;;;12.95;;
67274;SDS011;55463;52.324;5.122;2023-08-06T02:42:01;16.95;;;11.95;;
67274;SDS011;55463;52.324;5.122;2023-08-06T02:44:27;20.33;;;13.48;;
67274;SDS011;55463;52.324;5.122;2023-08-06T02:46:53;20.90;;;13.07;;
67274;SDS011;55463;52.324;5.122;2023-08-06T02:49:19;21.52;;;14.75;;
67274;SDS011;55463;52.324;5.122;2023-08-06T02:51:47;20.52;;;14.70;;
67274;SDS011;55463;52.324;5.122;2023-08-06T02:54:12;24.60;;;15.27;;
67274;SDS011;55463;52.324;5.122;2023-08-06T02:56:38;21.45;;;14.63;;
67274;SDS011;55463;52.324;5.122;2023-08-06T02:59:03;18.48;;;13.65;;
67274;SDS011;55463;52.324;5.122;2023-08-06T03:01:28;18.77;;;14.73;;
67274;SDS011;55463;52.324;5.122;2023-08-06T03:03:54;24.50;;;15.52;;
67274;SDS011;55463;52.324;5.122;2023-08-06T03:06:19;24.02;;;15.57;;
67274;SDS011;55463;52.324;5.122;2023-08-06T03:08:45;20.55;;;16.33;;
67274;SDS011;55463;52.324;5.122;2023-08-06T03:11:10;19.63;;;15.43;;
67274;SDS011;55463;52.324;5.122;2023-08-06T03:13:35;20.92;;;14.48;;
67274;SDS011;55463;52.324;5.122;2023-08-06T03:16:01;22.33;;;16.02;;
67274;SDS011;55463;52.324;5.122;2023-08-06T03:18:26;24.63;;;16.95;;
67274;SDS011;55463;52.324;5.122;2023-08-06T03:20:53;22.67;;;15.65;;
67274;SDS011;55463;52.324;5.122;2023-08-06T03:23:18;24.98;;;16.38;;
67274;SDS011;55463;52.324;5.122;2023-08-06T03:25:44;24.80;;;16.40;;
67274;SDS011;55463;52.324;5.122;2023-08-06T03:28:10;21.40;;;14.40;;
67274;SDS011;55463;52.324;5.122;2023-08-06T03:30:35;23.65;;;16.75;;
67274;SDS011;55463;52.324;5.122;2023-08-06T03:33:01;23.33;;;16.55;;
67274;SDS011;55463;52.324;5.122;2023-08-06T03:35:26;23.88;;;15.05;;
67274;SDS011;55463;52.324;5.122;2023-08-06T03:37:52;25.08;;;16.02;;
67274;SDS011;55463;52.324;5.122;2023-08-06T03:40:17;22.58;;;16.02;;
67274;SDS011;55463;52.324;5.122;2023-08-06T03:42:43;20.52;;;15.13;;
67274;SDS011;55463;52.324;5.122;2023-08-06T03:45:08;29.08;;;16.48;;
67274;SDS011;55463;52.324;5.122;2023-08-06T03:47:34;24.98;;;16.55;;
67274;SDS011;55463;52.324;5.122;2023-08-06T03:49:59;25.00;;;17.15;;
67274;SDS011;55463;52.324;5.122;2023-08-06T03:52:25;25.45;;;16.23;;
67274;SDS011;55463;52.324;5.122;2023-08-06T03:54:50;29.67;;;17.08;;
67274;SDS011;55463;52.324;5.122;2023-08-06T03:57:16;32.40;;;17.67;;
67274;SDS011;55463;52.324;5.122;2023-08-06T03:59:41;25.20;;;17.10;;
67274;SDS011;55463;52.324;5.122;2023-08-06T04:02:06;28.00;;;17.38;;
67274;SDS011;55463;52.324;5.122;2023-08-06T04:04:32;22.70;;;15.52;;
67274;SDS011;55463;52.324;5.122;2023-08-06T04:06:57;26.65;;;16.48;;
67274;SDS011;55463;52.324;5.122;2023-08-06T04:09:22;25.80;;;16.15;;
67274;SDS011;55463;52.324;5.122;2023-08-06T04:11:48;22.05;;;15.55;;
67274;SDS011;55463;52.324;5.122;2023-08-06T04:14:13;26.60;;;16.15;;
67274;SDS011;55463;52.324;5.122;2023-08-06T04:16:39;25.55;;;15.70;;
67274;SDS011;55463;52.324;5.122;2023-08-06T04:19:04;22.98;;;15.13;;
67274;SDS011;55463;52.324;5.122;2023-08-06T04:21:29;23.60;;;15.55;;
67274;SDS011;55463;52.324;5.122;2023-08-06T04:23:55;22.42;;;15.48;;
67274;SDS011;55463;52.324;5.122;2023-08-06T04:26:21;20.95;;;15.10;;
67274;SDS011;55463;52.324;5.122;2023-08-06T04:28:47;20.73;;;15.45;;
67274;SDS011;55463;52.324;5.122;2023-08-06T04:31:12;21.95;;;14.55;;
67274;SDS011;55463;52.324;5.122;2023-08-06T04:33:38;20.10;;;14.05;;
67274;SDS011;55463;52.324;5.122;2023-08-06T04:36:03;25.65;;;14.95;;
67274;SDS011;55463;52.324;5.122;2023-08-06T04:38:29;23.63;;;14.63;;
67274;SDS011;55463;52.324;5.122;2023-08-06T04:40:54;24.10;;;15.55;;
67274;SDS011;55463;52.324;5.122;2023-08-06T04:43:19;24.55;;;14.52;;
67274;SDS011;55463;52.324;5.122;2023-08-06T04:45:45;23.75;;;13.98;;
67274;SDS011;55463;52.324;5.122;2023-08-06T04:48:14;21.38;;;14.30;;
67274;SDS011;55463;52.324;5.122;2023-08-06T04:50:46;23.83;;;14.00;;
67274;SDS011;55463;52.324;5.122;2023-08-06T04:53:13;19.92;;;13.55;;
67274;SDS011;55463;52.324;5.122;2023-08-06T04:55:38;19.73;;;13.65;;
67274;SDS011;55463;52.324;5.122;2023-08-06T04:58:04;19.15;;;13.27;;
67274;SDS011;55463;52.324;5.122;2023-08-06T05:00:29;21.80;;;13.90;;
67274;SDS011;55463;52.324;5.122;2023-08-06T05:02:55;16.85;;;13.02;;
67274;SDS011;55463;52.324;5.122;2023-08-06T05:05:20;18.42;;;12.98;;
67274;SDS011;55463;52.324;5.122;2023-08-06T05:07:48;21.27;;;13.75;;
67274;SDS011;55463;52.324;5.122;2023-08-06T05:10:15;17.73;;;11.85;;
67274;SDS011;55463;52.324;5.122;2023-08-06T05:12:40;15.43;;;11.25;;
67274;SDS011;55463;52.324;5.122;2023-08-06T05:15:06;16.55;;;12.35;;
67274;SDS011;55463;52.324;5.122;2023-08-06T05:17:32;16.30;;;11.18;;
67274;SDS011;55463;52.324;5.122;2023-08-06T05:19:58;15.95;;;11.40;;
67274;SDS011;55463;52.324;5.122;2023-08-06T05:22:23;18.38;;;12.68;;
67274;SDS011;55463;52.324;5.122;2023-08-06T05:24:48;19.60;;;13.68;;
67274;SDS011;55463;52.324;5.122;2023-08-06T05:27:14;20.88;;;14.68;;
67274;SDS011;55463;52.324;5.122;2023-08-06T05:29:39;20.33;;;14.98;;
67274;SDS011;55463;52.324;5.122;2023-08-06T05:32:05;19.15;;;13.77;;
67274;SDS011;55463;52.324;5.122;2023-08-06T05:34:30;16.98;;;12.68;;
67274;SDS011;55463;52.324;5.122;2023-08-06T05:36:56;15.88;;;11.48;;
67274;SDS011;55463;52.324;5.122;2023-08-06T05:39:21;15.02;;;11.43;;
67274;SDS011;55463;52.324;5.122;2023-08-06T05:41:46;15.48;;;10.85;;
67274;SDS011;55463;52.324;5.122;2023-08-06T05:44:12;16.85;;;11.07;;
67274;SDS011;55463;52.324;5.122;2023-08-06T05:46:37;16.10;;;11.43;;
67274;SDS011;55463;52.324;5.122;2023-08-06T05:49:02;16.88;;;11.07;;
67274;SDS011;55463;52.324;5.122;2023-08-06T05:51:28;15.77;;;10.55;;
67274;SDS011;55463;52.324;5.122;2023-08-06T05:53:56;17.08;;;12.88;;
67274;SDS011;55463;52.324;5.122;2023-08-06T05:56:22;21.65;;;14.05;;
67274;SDS011;55463;52.324;5.122;2023-08-06T05:58:47;13.52;;;9.73;;
67274;SDS011;55463;52.324;5.122;2023-08-06T06:01:13;10.73;;;8.40;;
67274;SDS011;55463;52.324;5.122;2023-08-06T06:03:39;8.25;;;5.50;;
67274;SDS011;55463;52.324;5.122;2023-08-06T06:06:04;7.75;;;5.90;;
67274;SDS011;55463;52.324;5.122;2023-08-06T06:08:29;15.85;;;10.68;;
67274;SDS011;55463;52.324;5.122;2023-08-06T06:10:55;13.68;;;9.93;;
67274;SDS011;55463;52.324;5.122;2023-08-06T06:13:20;14.00;;;9.23;;
67274;SDS011;55463;52.324;5.122;2023-08-06T06:15:46;9.20;;;6.55;;
67274;SDS011;55463;52.324;5.122;2023-08-06T06:18:12;5.07;;;4.25;;
67274;SDS011;55463;52.324;5.122;2023-08-06T06:20:38;4.25;;;3.80;;
67274;SDS011;55463;52.324;5.122;2023-08-06T06:23:03;4.47;;;4.07;;
67274;SDS011;55463;52.324;5.122;2023-08-06T06:25:29;5.68;;;3.90;;
67274;SDS011;55463;52.324;5.122;2023-08-06T06:27:54;6.60;;;3.97;;
67274;SDS011;55463;52.324;5.122;2023-08-06T06:30:19;4.40;;;4.00;;
67274;SDS011;55463;52.324;5.122;2023-08-06T06:32:45;5.13;;;3.63;;
67274;SDS011;55463;52.324;5.122;2023-08-06T06:35:10;3.80;;;3.47;;
67274;SDS011;55463;52.324;5.122;2023-08-06T06:37:36;7.55;;;4.65;;
67274;SDS011;55463;52.324;5.122;2023-08-06T06:40:01;6.82;;;4.90;;
67274;SDS011;55463;52.324;5.122;2023-08-06T06:42:27;6.35;;;4.70;;
67274;SDS011;55463;52.324;5.122;2023-08-06T06:44:52;4.95;;;4.20;;
67274;SDS011;55463;52.324;5.122;2023-08-06T06:47:17;7.88;;;5.40;;
67274;SDS011;55463;52.324;5.122;2023-08-06T06:49:43;6.78;;;5.20;;
67274;SDS011;55463;52.324;5.122;2023-08-06T06:52:08;6.28;;;5.30;;
67274;SDS011;55463;52.324;5.122;2023-08-06T06:54:33;9.18;;;5.03;;
67274;SDS011;55463;52.324;5.122;2023-08-06T06:56:59;9.48;;;5.90;;
67274;SDS011;55463;52.324;5.122;2023-08-06T06:59:24;11.65;;;6.32;;
67274;SDS011;55463;52.324;5.122;2023-08-06T07:01:49;15.75;;;6.28;;
67274;SDS011;55463;52.324;5.122;2023-08-06T07:04:15;11.05;;;5.70;;
67274;SDS011;55463;52.324;5.122;2023-08-06T07:06:40;11.65;;;5.07;;
67274;SDS011;55463;52.324;5.122;2023-08-06T07:09:06;15.77;;;5.10;;
67274;SDS011;55463;52.324;5.122;2023-08-06T07:11:31;13.68;;;5.10;;
67274;SDS011;55463;52.324;5.122;2023-08-06T07:13:57;13.32;;;4.65;;
67274;SDS011;55463;52.324;5.122;2023-08-06T07:16:25;15.52;;;4.90;;
67274;SDS011;55463;52.324;5.122;2023-08-06T07:18:51;6.13;;;3.60;;
67274;SDS011;55463;52.324;5.122;2023-08-06T07:21:18;12.23;;;4.85;;
67274;SDS011;55463;52.324;5.122;2023-08-06T07:23:43;11.00;;;3.78;;
67274;SDS011;55463;52.324;5.122;2023-08-06T07:26:08;10.73;;;3.88;;
67274;SDS011;55463;52.324;5.122;2023-08-06T07:28:34;8.45;;;3.55;;
67274;SDS011;55463;52.324;5.122;2023-08-06T07:31:00;8.30;;;3.80;;
67274;SDS011;55463;52.324;5.122;2023-08-06T07:33:25;6.25;;;3.47;;
67274;SDS011;55463;52.324;5.122;2023-08-06T07:35:50;7.30;;;4.00;;
67274;SDS011;55463;52.324;5.122;2023-08-06T07:38:16;10.30;;;5.05;;
67274;SDS011;55463;52.324;5.122;2023-08-06T07:40:41;7.40;;;3.92;;
67274;SDS011;55463;52.324;5.122;2023-08-06T07:43:07;4.15;;;3.50;;
67274;SDS011;55463;52.324;5.122;2023-08-06T07:45:33;8.15;;;3.97;;
67274;SDS011;55463;52.324;5.122;2023-08-06T07:48:00;6.90;;;4.15;;
67274;SDS011;55463;52.324;5.122;2023-08-06T07:50:26;5.97;;;4.40;;
67274;SDS011;55463;52.324;5.122;2023-08-06T07:52:51;12.48;;;4.13;;
67274;SDS011;55463;52.324;5.122;2023-08-06T07:55:16;6.78;;;3.65;;
67274;SDS011;55463;52.324;5.122;2023-08-06T07:57:42;6.22;;;4.00;;
67274;SDS011;55463;52.324;5.122;2023-08-06T08:00:07;4.68;;;3.70;;
67274;SDS011;55463;52.324;5.122;2023-08-06T08:02:34;5.45;;;3.17;;
67274;SDS011;55463;52.324;5.122;2023-08-06T08:04:59;3.95;;;3.03;;
67274;SDS011;55463;52.324;5.122;2023-08-06T08:07:25;7.50;;;3.53;;
67274;SDS011;55463;52.324;5.122;2023-08-06T08:09:52;3.42;;;3.10;;
67274;SDS011;55463;52.324;5.122;2023-08-06T08:12:18;4.15;;;2.72;;
67274;SDS011;55463;52.324;5.122;2023-08-06T08:14:43;6.57;;;2.65;;
67274;SDS011;55463;52.324;5.122;2023-08-06T08:17:10;5.40;;;3.42;;
67274;SDS011;55463;52.324;5.122;2023-08-06T08:19:36;7.43;;;3.78;;
67274;SDS011;55463;52.324;5.122;2023-08-06T08:22:01;4.75;;;3.63;;
67274;SDS011;55463;52.324;5.122;2023-08-06T08:24:26;5.90;;;3.10;;
67274;SDS011;55463;52.324;5.122;2023-08-06T08:26:52;6.38;;;3.17;;
67274;SDS011;55463;52.324;5.122;2023-08-06T08:29:21;3.85;;;3.13;;
67274;SDS011;55463;52.324;5.122;2023-08-06T08:34:15;6.20;;;3.30;;
67274;SDS011;55463;52.324;5.122;2023-08-06T08:36:41;4.22;;;3.45;;
67274;SDS011;55463;52.324;5.122;2023-08-06T08:39:07;5.25;;;3.40;;
67274;SDS011;55463;52.324;5.122;2023-08-06T08:41:33;5.68;;;3.58;;
67274;SDS011;55463;52.324;5.122;2023-08-06T08:43:58;5.22;;;3.88;;
67274;SDS011;55463;52.324;5.122;2023-08-06T08:46:27;6.57;;;3.80;;
67274;SDS011;55463;52.324;5.122;2023-08-06T08:48:55;5.85;;;3.50;;
67274;SDS011;55463;52.324;5.122;2023-08-06T08:51:24;5.43;;;3.63;;
67274;SDS011;55463;52.324;5.122;2023-08-06T08:53:52;5.70;;;3.83;;
67274;SDS011;55463;52.324;5.122;2023-08-06T08:56:22;5.03;;;4.35;;
67274;SDS011;55463;52.324;5.122;2023-08-06T08:58:48;9.30;;;3.97;;
67274;SDS011;55463;52.324;5.122;2023-08-06T09:01:15;8.10;;;4.18;;
67274;SDS011;55463;52.324;5.122;2023-08-06T09:03:40;8.90;;;4.60;;
67274;SDS011;55463;52.324;5.122;2023-08-06T09:06:07;9.35;;;4.55;;
67274;SDS011;55463;52.324;5.122;2023-08-06T09:08:36;6.63;;;4.50;;
67274;SDS011;55463;52.324;5.122;2023-08-06T09:11:06;9.27;;;4.90;;
67274;SDS011;55463;52.324;5.122;2023-08-06T09:13:35;9.18;;;4.97;;
67274;SDS011;55463;52.324;5.122;2023-08-06T09:16:02;14.57;;;5.20;;
67274;SDS011;55463;52.324;5.122;2023-08-06T09:18:29;8.00;;;5.20;;
67274;SDS011;55463;52.324;5.122;2023-08-06T09:20:55;10.38;;;5.22;;
67274;SDS011;55463;52.324;5.122;2023-08-06T09:23:27;7.75;;;4.10;;
67274;SDS011;55463;52.324;5.122;2023-08-06T09:25:54;11.02;;;4.45;;
67274;SDS011;55463;52.324;5.122;2023-08-06T09:28:20;7.25;;;4.60;;
67274;SDS011;55463;52.324;5.122;2023-08-06T09:30:46;7.85;;;4.72;;
67274;SDS011;55463;52.324;5.122;2023-08-06T09:33:14;10.57;;;4.70;;
67274;SDS011;55463;52.324;5.122;2023-08-06T09:35:43;8.05;;;4.57;;
67274;SDS011;55463;52.324;5.122;2023-08-06T09:38:10;14.48;;;5.25;;
67274;SDS011;55463;52.324;5.122;2023-08-06T09:40:36;8.13;;;5.03;;
67274;SDS011;55463;52.324;5.122;2023-08-06T09:43:02;7.05;;;4.57;;
67274;SDS011;55463;52.324;5.122;2023-08-06T09:45:30;7.15;;;4.75;;
67274;SDS011;55463;52.324;5.122;2023-08-06T09:48:00;14.20;;;5.50;;
67274;SDS011;55463;52.324;5.122;2023-08-06T09:50:29;10.05;;;4.78;;
67274;SDS011;55463;52.324;5.122;2023-08-06T09:52:59;9.27;;;4.40;;
67274;SDS011;55463;52.324;5.122;2023-08-06T09:55:25;14.95;;;5.30;;
67274;SDS011;55463;52.324;5.122;2023-08-06T09:57:51;9.38;;;5.05;;
67274;SDS011;55463;52.324;5.122;2023-08-06T10:00:18;9.32;;;4.45;;
67274;SDS011;55463;52.324;5.122;2023-08-06T10:02:43;10.77;;;4.60;;
67274;SDS011;55463;52.324;5.122;2023-08-06T10:05:10;9.80;;;4.45;;
67274;SDS011;55463;52.324;5.122;2023-08-06T10:07:36;9.52;;;4.20;;
67274;SDS011;55463;52.324;5.122;2023-08-06T10:10:04;6.43;;;3.70;;
67274;SDS011;55463;52.324;5.122;2023-08-06T10:12:31;9.57;;;3.72;;
67274;SDS011;55463;52.324;5.122;2023-08-06T10:15:00;8.70;;;3.60;;
67274;SDS011;55463;52.324;5.122;2023-08-06T10:17:29;9.15;;;3.55;;
67274;SDS011;55463;52.324;5.122;2023-08-06T10:19:56;10.95;;;3.30;;
67274;SDS011;55463;52.324;5.122;2023-08-06T10:22:24;5.60;;;3.05;;
67274;SDS011;55463;52.324;5.122;2023-08-06T10:27:23;10.20;;;4.43;;
67274;SDS011;55463;52.324;5.122;2023-08-06T10:29:54;9.75;;;3.28;;
67274;SDS011;55463;52.324;5.122;2023-08-06T10:32:20;8.98;;;3.38;;
67274;SDS011;55463;52.324;5.122;2023-08-06T10:34:56;5.97;;;2.78;;
67274;SDS011;55463;52.324;5.122;2023-08-06T10:37:23;7.15;;;2.22;;
67274;SDS011;55463;52.324;5.122;2023-08-06T10:39:50;3.38;;;2.28;;
67274;SDS011;55463;52.324;5.122;2023-08-06T10:42:27;5.88;;;2.30;;
67274;SDS011;55463;52.324;5.122;2023-08-06T10:47:42;3.15;;;2.10;;
67274;SDS011;55463;52.324;5.122;2023-08-06T10:50:11;3.90;;;2.20;;
67274;SDS011;55463;52.324;5.122;2023-08-06T10:52:38;5.57;;;2.17;;
67274;SDS011;55463;52.324;5.122;2023-08-06T10:55:04;5.15;;;2.30;;
67274;SDS011;55463;52.324;5.122;2023-08-06T10:57:29;6.00;;;2.22;;
67274;SDS011;55463;52.324;5.122;2023-08-06T10:59:55;4.55;;;2.60;;
67274;SDS011;55463;52.324;5.122;2023-08-06T11:02:20;7.10;;;2.20;;
67274;SDS011;55463;52.324;5.122;2023-08-06T11:04:46;4.70;;;2.13;;
67274;SDS011;55463;52.324;5.122;2023-08-06T11:07:11;4.95;;;2.53;;
67274;SDS011;55463;52.324;5.122;2023-08-06T11:09:38;7.80;;;2.03;;
67274;SDS011;55463;52.324;5.122;2023-08-06T11:12:08;2.47;;;1.95;;
67274;SDS011;55463;52.324;5.122;2023-08-06T11:14:35;5.90;;;2.00;;
67274;SDS011;55463;52.324;5.122;2023-08-06T11:17:00;5.38;;;1.90;;
67274;SDS011;55463;52.324;5.122;2023-08-06T11:19:26;3.35;;;2.08;;
67274;SDS011;55463;52.324;5.122;2023-08-06T11:21:51;5.32;;;2.03;;
67274;SDS011;55463;52.324;5.122;2023-08-06T11:24:17;5.63;;;2.22;;
67274;SDS011;55463;52.324;5.122;2023-08-06T11:26:42;3.97;;;2.20;;
67274;SDS011;55463;52.324;5.122;2023-08-06T11:29:09;8.00;;;2.38;;
67274;SDS011;55463;52.324;5.122;2023-08-06T11:31:35;5.45;;;2.00;;
67274;SDS011;55463;52.324;5.122;2023-08-06T11:34:01;5.05;;;1.88;;
67274;SDS011;55463;52.324;5.122;2023-08-06T11:36:40;5.80;;;2.05;;
67274;SDS011;55463;52.324;5.122;2023-08-06T11:39:05;4.50;;;2.10;;
67274;SDS011;55463;52.324;5.122;2023-08-06T11:41:31;6.15;;;1.70;;
67274;SDS011;55463;52.324;5.122;2023-08-06T11:43:58;2.13;;;1.65;;
67274;SDS011;55463;52.324;5.122;2023-08-06T11:46:24;3.95;;;1.80;;
67274;SDS011;55463;52.324;5.122;2023-08-06T11:48:50;6.20;;;1.90;;
67274;SDS011;55463;52.324;5.122;2023-08-06T11:51:17;3.80;;;1.90;;
67274;SDS011;55463;52.324;5.122;2023-08-06T11:53:46;5.55;;;2.13;;
67274;SDS011;55463;52.324;5.122;2023-08-06T11:56:13;3.47;;;2.05;;
67274;SDS011;55463;52.324;5.122;2023-08-06T11:58:40;3.83;;;1.80;;
67274;SDS011;55463;52.324;5.122;2023-08-06T12:01:08;3.15;;;2.20;;
67274;SDS011;55463;52.324;5.122;2023-08-06T12:03:40;2.42;;;2.05;;
67274;SDS011;55463;52.324;5.122;2023-08-06T12:06:05;6.32;;;2.58;;
67274;SDS011;55463;52.324;5.122;2023-08-06T12:08:32;4.30;;;2.20;;
67274;SDS011;55463;52.324;5.122;2023-08-06T12:10:57;5.13;;;2.15;;
67274;SDS011;55463;52.324;5.122;2023-08-06T12:13:23;2.83;;;2.30;;
67274;SDS011;55463;52.324;5.122;2023-08-06T12:15:48;3.97;;;2.38;;
67274;SDS011;55463;52.324;5.122;2023-08-06T12:18:14;4.85;;;2.38;;
67274;SDS011;55463;52.324;5.122;2023-08-06T12:20:39;3.80;;;2.40;;
67274;SDS011;55463;52.324;5.122;2023-08-06T12:23:04;3.97;;;2.20;;
67274;SDS011;55463;52.324;5.122;2023-08-06T12:25:30;4.20;;;2.15;;
67274;SDS011;55463;52.324;5.122;2023-08-06T12:27:55;2.53;;;2.03;;
67274;SDS011;55463;52.324;5.122;2023-08-06T12:30:20;3.30;;;2.25;;
67274;SDS011;55463;52.324;5.122;2023-08-06T12:32:46;6.10;;;2.05;;
67274;SDS011;55463;52.324;5.122;2023-08-06T12:35:11;4.80;;;2.40;;
67274;SDS011;55463;52.324;5.122;2023-08-06T12:37:37;5.50;;;2.40;;
67274;SDS011;55463;52.324;5.122;2023-08-06T12:40:03;3.28;;;1.90;;
67274;SDS011;55463;52.324;5.122;2023-08-06T12:42:29;7.00;;;2.00;;
67274;SDS011;55463;52.324;5.122;2023-08-06T12:44:54;4.53;;;1.90;;
67274;SDS011;55463;52.324;5.122;2023-08-06T12:47:20;2.08;;;1.80;;
67274;SDS011;55463;52.324;5.122;2023-08-06T12:49:45;2.33;;;1.80;;
67274;SDS011;55463;52.324;5.122;2023-08-06T12:52:11;4.95;;;2.10;;
67274;SDS011;55463;52.324;5.122;2023-08-06T12:54:39;5.47;;;2.03;;
67274;SDS011;55463;52.324;5.122;2023-08-06T12:57:05;5.18;;;2.17;;
67274;SDS011;55463;52.324;5.122;2023-08-06T12:59:31;3.92;;;2.00;;
67274;SDS011;55463;52.324;5.122;2023-08-06T13:01:58;2.25;;;2.05;;
67274;SDS011;55463;52.324;5.122;2023-08-06T13:04:23;3.65;;;1.70;;
67274;SDS011;55463;52.324;5.122;2023-08-06T13:06:48;4.60;;;1.83;;
67274;SDS011;55463;52.324;5.122;2023-08-06T13:09:14;5.43;;;1.92;;
67274;SDS011;55463;52.324;5.122;2023-08-06T13:11:40;2.53;;;1.98;;
67274;SDS011;55463;52.324;5.122;2023-08-06T13:14:10;7.32;;;2.17;;
67274;SDS011;55463;52.324;5.122;2023-08-06T13:16:37;5.43;;;1.90;;
67274;SDS011;55463;52.324;5.122;2023-08-06T13:19:04;5.55;;;2.33;;
67274;SDS011;55463;52.324;5.122;2023-08-06T13:24:11;4.68;;;2.15;;
67274;SDS011;55463;52.324;5.122;2023-08-06T13:26:36;5.53;;;2.30;;
67274;SDS011;55463;52.324;5.122;2023-08-06T13:29:01;2.53;;;1.92;;
67274;SDS011;55463;52.324;5.122;2023-08-06T13:31:27;5.65;;;2.05;;
67274;SDS011;55463;52.324;5.122;2023-08-06T13:33:56;4.32;;;1.95;;
67274;SDS011;55463;52.324;5.122;2023-08-06T13:36:23;2.22;;;1.90;;
67274;SDS011;55463;52.324;5.122;2023-08-06T13:38:51;2.60;;;2.00;;
67274;SDS011;55463;52.324;5.122;2023-08-06T13:41:16;2.10;;;1.70;;
67274;SDS011;55463;52.324;5.122;2023-08-06T13:43:42;5.80;;;2.00;;
67274;SDS011;55463;52.324;5.122;2023-08-06T13:46:11;1.73;;;1.63;;
67274;SDS011;55463;52.324;5.122;2023-08-06T13:48:44;2.92;;;1.90;;
67274;SDS011;55463;52.324;5.122;2023-08-06T13:51:11;3.22;;;2.10;;
67274;SDS011;55463;52.324;5.122;2023-08-06T13:53:37;4.57;;;1.90;;
67274;SDS011;55463;52.324;5.122;2023-08-06T13:56:07;3.35;;;2.00;;
67274;SDS011;55463;52.324;5.122;2023-08-06T13:58:35;2.22;;;2.00;;
67274;SDS011;55463;52.324;5.122;2023-08-06T14:01:00;2.75;;;2.15;;
67274;SDS011;55463;52.324;5.122;2023-08-06T14:03:26;3.40;;;1.80;;
67274;SDS011;55463;52.324;5.122;2023-08-06T14:05:51;3.55;;;1.75;;
67274;SDS011;55463;52.324;5.122;2023-08-06T14:08:20;2.10;;;1.63;;
67274;SDS011;55463;52.324;5.122;2023-08-06T14:10:45;1.80;;;1.67;;
67274;SDS011;55463;52.324;5.122;2023-08-06T14:13:11;4.05;;;1.60;;
67274;SDS011;55463;52.324;5.122;2023-08-06T14:15:37;3.63;;;1.50;;
67274;SDS011;55463;52.324;5.122;2023-08-06T14:18:05;1.67;;;1.50;;
67274;SDS011;55463;52.324;5.122;2023-08-06T14:20:30;4.68;;;1.55;;
67274;SDS011;55463;52.324;5.122;2023-08-06T14:22:56;1.63;;;1.50;;
67274;SDS011;55463;52.324;5.122;2023-08-06T14:25:22;1.88;;;1.42;;
67274;SDS011;55463;52.324;5.122;2023-08-06T14:27:47;4.30;;;1.50;;
67274;SDS011;55463;52.324;5.122;2023-08-06T14:30:13;4.78;;;1.65;;
67274;SDS011;55463;52.324;5.122;2023-08-06T14:32:38;4.22;;;1.73;;
67274;SDS011;55463;52.324;5.122;2023-08-06T14:35:03;5.50;;;1.90;;
67274;SDS011;55463;52.324;5.122;2023-08-06T14:37:29;4.65;;;1.58;;
67274;SDS011;55463;52.324;5.122;2023-08-06T14:39:55;4.28;;;1.50;;
67274;SDS011;55463;52.324;5.122;2023-08-06T14:42:20;6.57;;;1.75;;
67274;SDS011;55463;52.324;5.122;2023-08-06T14:44:46;4.13;;;1.25;;
67274;SDS011;55463;52.324;5.122;2023-08-06T14:47:11;5.38;;;1.60;;
67274;SDS011;55463;52.324;5.122;2023-08-06T14:49:37;4.82;;;1.25;;